Mayport Ns (Adm David L. Mcdonald Field) Airport
KNRB : now visible

Airfield :











YOU CAN JOIN US ON...

 
LOGIN :

Register | Disclaimer

   EN    FR    IT 

 









Legend :    VFR   Marginal VFR   IFR   Intensive IFR   Very Intensive IFR
Visi :
Ceiling :
>= 8 km
>= 3000ft
5 to 8 km
1000 to 3000 ft
1500m to 5 km
500 to 1000 ft
800 to 1500m
200 to 500 ft
< 800m
< 200 ft
Symbols :   Thunderstorms  Fog  Heavy snow  Heavy precipitations  Wind > 20 kt






- Airport Elevation : 15 ft


KNRB - Mayport Ns (Adm David L. Mcdonald Field)

CURRENT METAR :
  • 140752Z AUTO 03023G28KT 10SM OVC011 15/14 A3015 RMK AO2 PK WND 03028/0715 SLP210 T01500139 $

EXPIRED METARs :
  • 140652Z AUTO 04021KT 10SM OVC011 14/13 A3017 RMK AO2 PK WND 03029/0613 SLP216 T01440133 $
  • 140552Z AUTO 03023G28KT 10SM OVC011 15/13 A3017 RMK AO2 PK WND 03030/0535 SLP217 T01500133 10156 20128 58014 $

TAF AMD TAF KNRB
Valid from the 14 at 07:00 until the 15 at 07:00 UTC


1407/1507 03014KT 9999 BKN010 BKN020 QNH3006INS
FM141500 03010KT 9999 VCSH SCT020 BKN035 BKN250 QNH3007INS
FM141900 01010KT 8000 -SHRA VCTS BKN020CB BKN250 QNH3002INS
TEMPO 1501/1507 3200 SHRA BKN003 OVC010CB AUTOMATED SENSOR METWATCH 1407 TIL 1409 T14/1411Z T22/1420Z AMD 0709 FN00205



MET'MAP, your aeronautical weather chart ! - Copyright ORBIFLY December 2007 - Disclaimer

ORBIFLY MET'MAP TEAM :

Programming & Development : Alexandra Zaïnal
Concept & Development : Baudouin d'Aumeries
Co-Development & Prog : Marc-Olivier Méhu
Technical & hardware support : Manuel Goepfert

Contact : metmap@orbifly.com




SOURCES & CREDITS :

   NOAA       Earth
Advisory